sensor_id;sensor_type;location;lat;lon;timestamp;temperature;humidity
21280;DHT22;11764;43.100;25.716;2022-07-01T00:01:28;23.80;99.90
21280;DHT22;11764;43.100;25.716;2022-07-01T00:03:53;23.90;99.90
21280;DHT22;11764;43.100;25.716;2022-07-01T00:06:19;24.10;99.90
21280;DHT22;11764;43.100;25.716;2022-07-01T00:08:45;24.10;99.90
21280;DHT22;11764;43.100;25.716;2022-07-01T00:11:11;24.00;99.90
21280;DHT22;11764;43.100;25.716;2022-07-01T00:13:36;23.90;99.90
21280;DHT22;11764;43.100;25.716;2022-07-01T00:16:02;23.60;99.90
21280;DHT22;11764;43.100;25.716;2022-07-01T00:18:28;23.40;99.90
21280;DHT22;11764;43.100;25.716;2022-07-01T00:20:53;23.40;99.90
21280;DHT22;11764;43.100;25.716;2022-07-01T00:23:19;23.60;99.90
21280;DHT22;11764;43.100;25.716;2022-07-01T00:25:45;23.60;99.90
21280;DHT22;11764;43.100;25.716;2022-07-01T00:28:11;23.60;99.90
21280;DHT22;11764;43.100;25.716;2022-07-01T00:30:36;23.60;99.90
21280;DHT22;11764;43.100;25.716;2022-07-01T00:33:02;23.50;99.90
21280;DHT22;11764;43.100;25.716;2022-07-01T00:35:28;23.30;99.90
21280;DHT22;11764;43.100;25.716;2022-07-01T00:37:53;23.40;99.90
21280;DHT22;11764;43.100;25.716;2022-07-01T00:40:19;23.40;99.90
21280;DHT22;11764;43.100;25.716;2022-07-01T00:42:44;23.50;99.90
21280;DHT22;11764;43.100;25.716;2022-07-01T00:45:10;23.50;99.90
21280;DHT22;11764;43.100;25.716;2022-07-01T00:47:36;23.60;99.90
21280;DHT22;11764;43.100;25.716;2022-07-01T00:50:06;23.50;99.90
21280;DHT22;11764;43.100;25.716;2022-07-01T00:52:32;23.40;99.90
21280;DHT22;11764;43.100;25.716;2022-07-01T00:54:58;23.40;99.90
21280;DHT22;11764;43.100;25.716;2022-07-01T00:57:24;23.20;99.90
21280;DHT22;11764;43.100;25.716;2022-07-01T00:59:54;23.00;99.90
21280;DHT22;11764;43.100;25.716;2022-07-01T01:02:20;22.80;99.90
21280;DHT22;11764;43.100;25.716;2022-07-01T01:04:46;22.90;99.90
21280;DHT22;11764;43.100;25.716;2022-07-01T01:07:12;22.90;99.90
21280;DHT22;11764;43.100;25.716;2022-07-01T01:09:38;22.90;99.90
21280;DHT22;11764;43.100;25.716;2022-07-01T01:12:04;22.70;99.90
21280;DHT22;11764;43.100;25.716;2022-07-01T01:14:30;22.60;99.90
21280;DHT22;11764;43.100;25.716;2022-07-01T01:17:07;22.60;99.90
21280;DHT22;11764;43.100;25.716;2022-07-01T01:19:33;22.50;99.90
21280;DHT22;11764;43.100;25.716;2022-07-01T01:21:59;22.40;99.90
21280;DHT22;11764;43.100;25.716;2022-07-01T01:24:24;22.20;99.90
21280;DHT22;11764;43.100;25.716;2022-07-01T01:26:50;22.20;99.90
21280;DHT22;11764;43.100;25.716;2022-07-01T01:29:15;22.30;99.90
21280;DHT22;11764;43.100;25.716;2022-07-01T01:31:41;22.50;99.90
21280;DHT22;11764;43.100;25.716;2022-07-01T01:34:07;22.20;99.90
21280;DHT22;11764;43.100;25.716;2022-07-01T01:36:32;22.40;99.90
21280;DHT22;11764;43.100;25.716;2022-07-01T01:38:58;22.30;99.90
21280;DHT22;11764;43.100;25.716;2022-07-01T01:41:42;22.20;99.90
21280;DHT22;11764;43.100;25.716;2022-07-01T01:44:07;22.30;99.90
21280;DHT22;11764;43.100;25.716;2022-07-01T01:46:33;22.30;99.90
21280;DHT22;11764;43.100;25.716;2022-07-01T01:49:00;22.10;99.90
21280;DHT22;11764;43.100;25.716;2022-07-01T01:51:25;22.00;99.90
21280;DHT22;11764;43.100;25.716;2022-07-01T01:53:51;22.10;99.90
21280;DHT22;11764;43.100;25.716;2022-07-01T01:56:17;22.10;99.90
21280;DHT22;11764;43.100;25.716;2022-07-01T01:58:42;22.20;99.90
21280;DHT22;11764;43.100;25.716;2022-07-01T02:01:10;22.10;99.90
21280;DHT22;11764;43.100;25.716;2022-07-01T02:03:36;22.20;99.90
21280;DHT22;11764;43.100;25.716;2022-07-01T02:06:03;22.30;99.90
21280;DHT22;11764;43.100;25.716;2022-07-01T02:08:28;22.30;99.90
21280;DHT22;11764;43.100;25.716;2022-07-01T02:10:54;22.50;99.90
21280;DHT22;11764;43.100;25.716;2022-07-01T02:13:19;22.60;99.90
21280;DHT22;11764;43.100;25.716;2022-07-01T02:15:45;22.70;99.90
21280;DHT22;11764;43.100;25.716;2022-07-01T02:18:10;22.50;99.90
21280;DHT22;11764;43.100;25.716;2022-07-01T02:20:36;22.90;99.90
21280;DHT22;11764;43.100;25.716;2022-07-01T02:23:02;22.90;99.90
21280;DHT22;11764;43.100;25.716;2022-07-01T02:25:27;22.80;99.90
21280;DHT22;11764;43.100;25.716;2022-07-01T02:27:53;22.70;99.90
21280;DHT22;11764;43.100;25.716;2022-07-01T02:30:18;22.50;99.90
21280;DHT22;11764;43.100;25.716;2022-07-01T02:32:44;22.40;99.90
21280;DHT22;11764;43.100;25.716;2022-07-01T02:35:09;22.30;99.90
21280;DHT22;11764;43.100;25.716;2022-07-01T02:37:36;22.30;99.90
21280;DHT22;11764;43.100;25.716;2022-07-01T02:40:02;22.40;99.90
21280;DHT22;11764;43.100;25.716;2022-07-01T02:42:28;22.00;99.90
21280;DHT22;11764;43.100;25.716;2022-07-01T02:44:56;21.90;99.90
21280;DHT22;11764;43.100;25.716;2022-07-01T02:47:22;21.90;99.90
21280;DHT22;11764;43.100;25.716;2022-07-01T02:49:48;21.80;99.90
21280;DHT22;11764;43.100;25.716;2022-07-01T02:52:13;21.50;99.90
21280;DHT22;11764;43.100;25.716;2022-07-01T02:54:41;21.30;99.90
21280;DHT22;11764;43.100;25.716;2022-07-01T02:57:07;21.40;99.90
21280;DHT22;11764;43.100;25.716;2022-07-01T02:59:33;21.50;99.90
21280;DHT22;11764;43.100;25.716;2022-07-01T03:01:58;21.40;99.90
21280;DHT22;11764;43.100;25.716;2022-07-01T03:04:24;21.50;99.90
21280;DHT22;11764;43.100;25.716;2022-07-01T03:06:49;21.60;99.90
21280;DHT22;11764;43.100;25.716;2022-07-01T03:09:15;21.70;99.90
21280;DHT22;11764;43.100;25.716;2022-07-01T03:11:40;21.70;99.90
21280;DHT22;11764;43.100;25.716;2022-07-01T03:14:06;21.90;99.90
21280;DHT22;11764;43.100;25.716;2022-07-01T03:16:31;22.20;99.90
21280;DHT22;11764;43.100;25.716;2022-07-01T03:18:57;22.20;99.90
21280;DHT22;11764;43.100;25.716;2022-07-01T03:21:22;22.40;99.90
21280;DHT22;11764;43.100;25.716;2022-07-01T03:23:48;22.50;99.90
21280;DHT22;11764;43.100;25.716;2022-07-01T03:26:13;22.50;99.90
21280;DHT22;11764;43.100;25.716;2022-07-01T03:28:40;22.80;99.90
21280;DHT22;11764;43.100;25.716;2022-07-01T03:31:05;22.80;99.90
21280;DHT22;11764;43.100;25.716;2022-07-01T03:33:31;22.90;99.90
21280;DHT22;11764;43.100;25.716;2022-07-01T03:35:56;23.00;99.90
21280;DHT22;11764;43.100;25.716;2022-07-01T03:38:22;23.10;99.90
21280;DHT22;11764;43.100;25.716;2022-07-01T03:40:48;23.20;99.90
21280;DHT22;11764;43.100;25.716;2022-07-01T03:43:13;23.30;99.90
21280;DHT22;11764;43.100;25.716;2022-07-01T03:45:39;23.60;99.90
21280;DHT22;11764;43.100;25.716;2022-07-01T03:48:05;23.70;99.90
21280;DHT22;11764;43.100;25.716;2022-07-01T03:50:30;23.80;99.90
21280;DHT22;11764;43.100;25.716;2022-07-01T03:52:56;23.90;99.90
21280;DHT22;11764;43.100;25.716;2022-07-01T03:55:40;24.00;99.90
21280;DHT22;11764;43.100;25.716;2022-07-01T03:58:06;24.30;99.90
21280;DHT22;11764;43.100;25.716;2022-07-01T04:00:34;24.50;99.90
21280;DHT22;11764;43.100;25.716;2022-07-01T04:03:01;24.70;99.90
21280;DHT22;11764;43.100;25.716;2022-07-01T04:05:26;24.90;99.90
21280;DHT22;11764;43.100;25.716;2022-07-01T04:07:52;24.40;99.90
21280;DHT22;11764;43.100;25.716;2022-07-01T04:10:17;24.10;99.90
21280;DHT22;11764;43.100;25.716;2022-07-01T04:12:43;24.00;99.90
21280;DHT22;11764;43.100;25.716;2022-07-01T04:15:09;24.40;99.90
21280;DHT22;11764;43.100;25.716;2022-07-01T04:17:35;24.70;99.90
21280;DHT22;11764;43.100;25.716;2022-07-01T04:20:00;24.90;99.90
21280;DHT22;11764;43.100;25.716;2022-07-01T04:22:26;24.80;99.90
21280;DHT22;11764;43.100;25.716;2022-07-01T04:24:58;24.90;99.90
21280;DHT22;11764;43.100;25.716;2022-07-01T04:27:23;25.10;99.90
21280;DHT22;11764;43.100;25.716;2022-07-01T04:29:49;25.20;99.90
21280;DHT22;11764;43.100;25.716;2022-07-01T04:32:14;25.10;99.90
21280;DHT22;11764;43.100;25.716;2022-07-01T04:34:40;25.10;99.90
21280;DHT22;11764;43.100;25.716;2022-07-01T04:37:05;25.00;99.90
21280;DHT22;11764;43.100;25.716;2022-07-01T04:39:31;24.90;99.90
21280;DHT22;11764;43.100;25.716;2022-07-01T04:41:57;24.80;99.90
21280;DHT22;11764;43.100;25.716;2022-07-01T04:44:35;24.90;99.90
21280;DHT22;11764;43.100;25.716;2022-07-01T04:47:01;25.00;99.90
21280;DHT22;11764;43.100;25.716;2022-07-01T04:49:27;25.20;99.90
21280;DHT22;11764;43.100;25.716;2022-07-01T04:51:53;25.60;99.90
21280;DHT22;11764;43.100;25.716;2022-07-01T04:54:18;25.70;99.90
21280;DHT22;11764;43.100;25.716;2022-07-01T04:56:44;25.70;99.90
21280;DHT22;11764;43.100;25.716;2022-07-01T04:59:11;25.90;99.90
21280;DHT22;11764;43.100;25.716;2022-07-01T05:01:36;26.00;99.90
21280;DHT22;11764;43.100;25.716;2022-07-01T05:04:02;26.10;99.90
21280;DHT22;11764;43.100;25.716;2022-07-01T05:06:27;26.10;99.90
21280;DHT22;11764;43.100;25.716;2022-07-01T05:08:53;26.30;99.90
21280;DHT22;11764;43.100;25.716;2022-07-01T05:11:18;26.50;99.90
21280;DHT22;11764;43.100;25.716;2022-07-01T05:13:44;26.80;99.90
21280;DHT22;11764;43.100;25.716;2022-07-01T05:16:09;27.10;99.90
21280;DHT22;11764;43.100;25.716;2022-07-01T05:18:36;27.20;99.90
21280;DHT22;11764;43.100;25.716;2022-07-01T05:21:20;27.30;99.90
21280;DHT22;11764;43.100;25.716;2022-07-01T05:24:04;27.50;99.90
21280;DHT22;11764;43.100;25.716;2022-07-01T05:26:30;27.80;99.90
21280;DHT22;11764;43.100;25.716;2022-07-01T05:28:55;27.90;99.90
21280;DHT22;11764;43.100;25.716;2022-07-01T05:31:21;27.90;99.90
21280;DHT22;11764;43.100;25.716;2022-07-01T05:33:47;27.60;99.90
21280;DHT22;11764;43.100;25.716;2022-07-01T05:36:13;27.10;99.90
21280;DHT22;11764;43.100;25.716;2022-07-01T05:38:38;27.10;99.90
21280;DHT22;11764;43.100;25.716;2022-07-01T05:41:04;27.30;99.90
21280;DHT22;11764;43.100;25.716;2022-07-01T05:43:30;27.60;99.90
21280;DHT22;11764;43.100;25.716;2022-07-01T05:45:56;27.80;99.90
21280;DHT22;11764;43.100;25.716;2022-07-01T05:48:21;27.90;99.90
21280;DHT22;11764;43.100;25.716;2022-07-01T05:50:48;28.10;99.90
21280;DHT22;11764;43.100;25.716;2022-07-01T05:53:13;28.20;99.90
21280;DHT22;11764;43.100;25.716;2022-07-01T05:55:39;28.20;99.90
21280;DHT22;11764;43.100;25.716;2022-07-01T05:58:05;28.30;99.90
21280;DHT22;11764;43.100;25.716;2022-07-01T06:00:33;28.40;99.90
21280;DHT22;11764;43.100;25.716;2022-07-01T06:02:59;28.40;99.90
21280;DHT22;11764;43.100;25.716;2022-07-01T06:05:24;28.80;99.90
21280;DHT22;11764;43.100;25.716;2022-07-01T06:07:50;28.90;99.90
21280;DHT22;11764;43.100;25.716;2022-07-01T06:10:16;29.00;99.90
21280;DHT22;11764;43.100;25.716;2022-07-01T06:12:41;28.70;99.90
21280;DHT22;11764;43.100;25.716;2022-07-01T06:15:07;28.40;99.90
21280;DHT22;11764;43.100;25.716;2022-07-01T06:17:34;28.60;99.90
21280;DHT22;11764;43.100;25.716;2022-07-01T06:19:59;28.90;99.90
21280;DHT22;11764;43.100;25.716;2022-07-01T06:22:25;29.00;99.90
21280;DHT22;11764;43.100;25.716;2022-07-01T06:24:50;29.20;99.90
21280;DHT22;11764;43.100;25.716;2022-07-01T06:27:16;28.90;99.90
21280;DHT22;11764;43.100;25.716;2022-07-01T06:29:41;28.50;99.90
21280;DHT22;11764;43.100;25.716;2022-07-01T06:32:07;27.80;99.90
21280;DHT22;11764;43.100;25.716;2022-07-01T06:34:35;27.60;99.90
21280;DHT22;11764;43.100;25.716;2022-07-01T06:37:01;27.50;99.90
21280;DHT22;11764;43.100;25.716;2022-07-01T06:39:27;27.50;99.90
21280;DHT22;11764;43.100;25.716;2022-07-01T06:41:52;27.80;99.90
21280;DHT22;11764;43.100;25.716;2022-07-01T06:44:18;27.90;99.90
21280;DHT22;11764;43.100;25.716;2022-07-01T06:46:44;27.80;99.90
21280;DHT22;11764;43.100;25.716;2022-07-01T06:49:10;27.70;99.90
21280;DHT22;11764;43.100;25.716;2022-07-01T06:51:35;27.60;99.90
21280;DHT22;11764;43.100;25.716;2022-07-01T06:54:01;27.80;99.90
21280;DHT22;11764;43.100;25.716;2022-07-01T06:56:26;28.00;99.90
21280;DHT22;11764;43.100;25.716;2022-07-01T06:58:52;28.10;99.90
21280;DHT22;11764;43.100;25.716;2022-07-01T07:01:18;28.20;99.90
21280;DHT22;11764;43.100;25.716;2022-07-01T07:03:43;28.20;99.90
21280;DHT22;11764;43.100;25.716;2022-07-01T07:06:09;28.10;99.90
21280;DHT22;11764;43.100;25.716;2022-07-01T07:08:34;28.20;99.90
21280;DHT22;11764;43.100;25.716;2022-07-01T07:11:00;28.40;99.90
21280;DHT22;11764;43.100;25.716;2022-07-01T07:13:26;28.70;99.90
21280;DHT22;11764;43.100;25.716;2022-07-01T07:15:51;28.90;99.90
21280;DHT22;11764;43.100;25.716;2022-07-01T07:18:17;29.20;99.90
21280;DHT22;11764;43.100;25.716;2022-07-01T07:20:43;29.60;99.90
21280;DHT22;11764;43.100;25.716;2022-07-01T07:23:08;30.00;99.90
21280;DHT22;11764;43.100;25.716;2022-07-01T07:25:34;30.30;99.90
21280;DHT22;11764;43.100;25.716;2022-07-01T07:28:00;29.40;99.90
21280;DHT22;11764;43.100;25.716;2022-07-01T07:30:26;28.90;99.90
21280;DHT22;11764;43.100;25.716;2022-07-01T07:32:51;29.30;99.90
21280;DHT22;11764;43.100;25.716;2022-07-01T07:35:17;29.80;99.90
21280;DHT22;11764;43.100;25.716;2022-07-01T07:37:42;29.40;99.90
21280;DHT22;11764;43.100;25.716;2022-07-01T07:40:09;29.70;99.90
21280;DHT22;11764;43.100;25.716;2022-07-01T07:42:35;30.30;99.90
21280;DHT22;11764;43.100;25.716;2022-07-01T07:45:01;30.50;99.90
21280;DHT22;11764;43.100;25.716;2022-07-01T07:47:27;30.60;99.90
21280;DHT22;11764;43.100;25.716;2022-07-01T07:49:53;30.40;99.90
21280;DHT22;11764;43.100;25.716;2022-07-01T07:52:18;30.40;99.90
21280;DHT22;11764;43.100;25.716;2022-07-01T07:54:44;30.90;99.90
21280;DHT22;11764;43.100;25.716;2022-07-01T07:57:09;31.00;99.90
21280;DHT22;11764;43.100;25.716;2022-07-01T07:59:35;31.20;99.90
21280;DHT22;11764;43.100;25.716;2022-07-01T08:02:01;31.60;99.90
21280;DHT22;11764;43.100;25.716;2022-07-01T08:04:26;31.70;99.90
21280;DHT22;11764;43.100;25.716;2022-07-01T08:06:52;31.50;99.90
21280;DHT22;11764;43.100;25.716;2022-07-01T08:09:17;31.20;99.90
21280;DHT22;11764;43.100;25.716;2022-07-01T08:11:43;31.00;99.90
21280;DHT22;11764;43.100;25.716;2022-07-01T08:14:09;30.90;99.90
21280;DHT22;11764;43.100;25.716;2022-07-01T08:16:35;31.20;99.90
21280;DHT22;11764;43.100;25.716;2022-07-01T08:19:00;31.20;99.90
21280;DHT22;11764;43.100;25.716;2022-07-01T08:21:28;31.30;99.90
21280;DHT22;11764;43.100;25.716;2022-07-01T08:23:53;31.30;99.90
21280;DHT22;11764;43.100;25.716;2022-07-01T08:26:19;31.20;99.90
21280;DHT22;11764;43.100;25.716;2022-07-01T08:28:44;31.00;99.90
21280;DHT22;11764;43.100;25.716;2022-07-01T08:31:10;31.00;99.90
21280;DHT22;11764;43.100;25.716;2022-07-01T08:33:36;31.00;99.90
21280;DHT22;11764;43.100;25.716;2022-07-01T08:36:03;30.90;99.90
21280;DHT22;11764;43.100;25.716;2022-07-01T08:38:29;30.40;99.90
21280;DHT22;11764;43.100;25.716;2022-07-01T08:40:54;30.00;99.90
21280;DHT22;11764;43.100;25.716;2022-07-01T08:43:20;29.70;99.90
21280;DHT22;11764;43.100;25.716;2022-07-01T08:45:45;29.90;99.90
21280;DHT22;11764;43.100;25.716;2022-07-01T08:48:11;30.40;99.90
21280;DHT22;11764;43.100;25.716;2022-07-01T08:50:38;30.50;99.90
21280;DHT22;11764;43.100;25.716;2022-07-01T08:53:04;30.70;99.90
21280;DHT22;11764;43.100;25.716;2022-07-01T08:55:30;30.90;99.90
21280;DHT22;11764;43.100;25.716;2022-07-01T08:57:56;31.10;99.90
21280;DHT22;11764;43.100;25.716;2022-07-01T09:00:21;31.00;99.90
21280;DHT22;11764;43.100;25.716;2022-07-01T09:02:57;30.60;99.90
21280;DHT22;11764;43.100;25.716;2022-07-01T09:05:23;30.60;99.90
21280;DHT22;11764;43.100;25.716;2022-07-01T09:07:54;31.00;99.90
21280;DHT22;11764;43.100;25.716;2022-07-01T09:10:21;31.00;99.90
21280;DHT22;11764;43.100;25.716;2022-07-01T09:12:46;31.50;99.90
21280;DHT22;11764;43.100;25.716;2022-07-01T09:15:26;31.70;99.90
21280;DHT22;11764;43.100;25.716;2022-07-01T09:17:52;31.90;99.90
21280;DHT22;11764;43.100;25.716;2022-07-01T09:20:25;31.90;99.90
21280;DHT22;11764;43.100;25.716;2022-07-01T09:22:59;31.90;99.90
21280;DHT22;11764;43.100;25.716;2022-07-01T09:25:35;31.90;99.90
21280;DHT22;11764;43.100;25.716;2022-07-01T09:28:03;31.30;99.90
21280;DHT22;11764;43.100;25.716;2022-07-01T09:30:28;31.30;99.90
21280;DHT22;11764;43.100;25.716;2022-07-01T09:33:04;31.80;99.90
21280;DHT22;11764;43.100;25.716;2022-07-01T09:35:31;31.50;99.90
21280;DHT22;11764;43.100;25.716;2022-07-01T09:37:57;31.40;99.90
21280;DHT22;11764;43.100;25.716;2022-07-01T09:40:23;31.80;99.90
21280;DHT22;11764;43.100;25.716;2022-07-01T09:42:48;32.20;99.90
21280;DHT22;11764;43.100;25.716;2022-07-01T09:45:14;32.20;99.90
21280;DHT22;11764;43.100;25.716;2022-07-01T09:47:40;31.50;99.90
21280;DHT22;11764;43.100;25.716;2022-07-01T09:50:06;31.60;99.90
21280;DHT22;11764;43.100;25.716;2022-07-01T09:52:32;31.80;99.90
21280;DHT22;11764;43.100;25.716;2022-07-01T09:54:58;31.70;99.90
21280;DHT22;11764;43.100;25.716;2022-07-01T09:57:24;31.70;99.90
21280;DHT22;11764;43.100;25.716;2022-07-01T09:59:50;31.60;99.90
21280;DHT22;11764;43.100;25.716;2022-07-01T10:02:19;31.90;99.90
21280;DHT22;11764;43.100;25.716;2022-07-01T10:05:07;32.20;99.90
21280;DHT22;11764;43.100;25.716;2022-07-01T10:12:46;32.30;99.90
21280;DHT22;11764;43.100;25.716;2022-07-01T10:15:14;32.00;99.90
21280;DHT22;11764;43.100;25.716;2022-07-01T10:17:42;32.20;99.90
21280;DHT22;11764;43.100;25.716;2022-07-01T10:20:18;32.40;99.90
21280;DHT22;11764;43.100;25.716;2022-07-01T10:22:44;32.90;99.90
21280;DHT22;11764;43.100;25.716;2022-07-01T10:41:32;32.80;99.90
21280;DHT22;11764;43.100;25.716;2022-07-01T10:43:58;32.60;99.90
21280;DHT22;11764;43.100;25.716;2022-07-01T10:49:16;32.80;99.90
21280;DHT22;11764;43.100;25.716;2022-07-01T10:51:45;33.10;99.80
21280;DHT22;11764;43.100;25.716;2022-07-01T10:54:12;33.30;98.90
21280;DHT22;11764;43.100;25.716;2022-07-01T10:56:40;33.50;96.40
21280;DHT22;11764;43.100;25.716;2022-07-01T10:59:06;32.80;98.40
21280;DHT22;11764;43.100;25.716;2022-07-01T11:01:32;33.10;98.80
21280;DHT22;11764;43.100;25.716;2022-07-01T11:03:58;33.40;99.30
21280;DHT22;11764;43.100;25.716;2022-07-01T11:06:24;33.30;99.50
21280;DHT22;11764;43.100;25.716;2022-07-01T11:08:50;33.20;98.00
21280;DHT22;11764;43.100;25.716;2022-07-01T11:11:15;33.00;99.00
21280;DHT22;11764;43.100;25.716;2022-07-01T11:13:41;33.10;99.30
21280;DHT22;11764;43.100;25.716;2022-07-01T11:16:07;33.50;99.40
21280;DHT22;11764;43.100;25.716;2022-07-01T11:18:33;33.00;97.30
21280;DHT22;11764;43.100;25.716;2022-07-01T11:21:03;33.30;97.70
21280;DHT22;11764;43.100;25.716;2022-07-01T11:23:29;33.10;97.90
21280;DHT22;11764;43.100;25.716;2022-07-01T11:25:55;33.40;98.80
21280;DHT22;11764;43.100;25.716;2022-07-01T11:28:20;33.60;98.20
21280;DHT22;11764;43.100;25.716;2022-07-01T11:30:46;33.30;98.40
21280;DHT22;11764;43.100;25.716;2022-07-01T11:33:11;33.40;97.80
21280;DHT22;11764;43.100;25.716;2022-07-01T11:35:37;33.40;96.50
21280;DHT22;11764;43.100;25.716;2022-07-01T11:38:22;33.60;95.80
21280;DHT22;11764;43.100;25.716;2022-07-01T11:41:07;33.30;96.80
21280;DHT22;11764;43.100;25.716;2022-07-01T11:43:35;33.10;97.00
21280;DHT22;11764;43.100;25.716;2022-07-01T11:46:02;33.30;96.30
21280;DHT22;11764;43.100;25.716;2022-07-01T11:48:32;33.40;95.90
21280;DHT22;11764;43.100;25.716;2022-07-01T11:50:58;33.00;92.60
21280;DHT22;11764;43.100;25.716;2022-07-01T11:53:24;33.10;94.50
21280;DHT22;11764;43.100;25.716;2022-07-01T11:55:50;33.20;92.60
21280;DHT22;11764;43.100;25.716;2022-07-01T11:58:15;33.60;92.40
21280;DHT22;11764;43.100;25.716;2022-07-01T12:00:41;33.80;93.30
21280;DHT22;11764;43.100;25.716;2022-07-01T12:03:06;33.80;91.30
21280;DHT22;11764;43.100;25.716;2022-07-01T12:05:33;33.90;90.90
21280;DHT22;11764;43.100;25.716;2022-07-01T12:07:59;34.10;88.30
21280;DHT22;11764;43.100;25.716;2022-07-01T12:10:25;34.20;88.10
21280;DHT22;11764;43.100;25.716;2022-07-01T12:12:51;34.30;89.00
21280;DHT22;11764;43.100;25.716;2022-07-01T12:15:17;34.20;87.40
21280;DHT22;11764;43.100;25.716;2022-07-01T12:17:42;34.20;86.80
21280;DHT22;11764;43.100;25.716;2022-07-01T12:20:08;34.20;87.70
21280;DHT22;11764;43.100;25.716;2022-07-01T12:22:33;34.20;86.30
21280;DHT22;11764;43.100;25.716;2022-07-01T12:25:06;34.40;84.60
21280;DHT22;11764;43.100;25.716;2022-07-01T12:27:32;34.00;85.00
21280;DHT22;11764;43.100;25.716;2022-07-01T12:29:58;33.60;86.80
21280;DHT22;11764;43.100;25.716;2022-07-01T12:32:25;33.80;85.00
21280;DHT22;11764;43.100;25.716;2022-07-01T12:34:56;33.90;84.30
21280;DHT22;11764;43.100;25.716;2022-07-01T12:37:35;33.90;83.00
21280;DHT22;11764;43.100;25.716;2022-07-01T12:44:56;34.50;83.30
21280;DHT22;11764;43.100;25.716;2022-07-01T12:47:27;34.40;83.00
21280;DHT22;11764;43.100;25.716;2022-07-01T12:52:38;34.50;81.70
21280;DHT22;11764;43.100;25.716;2022-07-01T12:55:16;34.50;81.40
21280;DHT22;11764;43.100;25.716;2022-07-01T12:57:42;34.40;80.50
21280;DHT22;11764;43.100;25.716;2022-07-01T13:00:07;34.40;81.40
21280;DHT22;11764;43.100;25.716;2022-07-01T13:02:33;34.50;79.70
21280;DHT22;11764;43.100;25.716;2022-07-01T13:04:59;34.60;80.30
21280;DHT22;11764;43.100;25.716;2022-07-01T13:07:24;34.70;79.70
21280;DHT22;11764;43.100;25.716;2022-07-01T13:09:50;34.70;83.10
21280;DHT22;11764;43.100;25.716;2022-07-01T13:12:16;34.40;82.80
21280;DHT22;11764;43.100;25.716;2022-07-01T13:14:41;34.60;81.60
21280;DHT22;11764;43.100;25.716;2022-07-01T13:17:09;34.80;82.10
21280;DHT22;11764;43.100;25.716;2022-07-01T13:19:34;35.00;83.20
21280;DHT22;11764;43.100;25.716;2022-07-01T13:22:03;34.70;81.20
21280;DHT22;11764;43.100;25.716;2022-07-01T13:24:29;34.90;81.50
21280;DHT22;11764;43.100;25.716;2022-07-01T13:26:55;35.00;82.40
21280;DHT22;11764;43.100;25.716;2022-07-01T13:29:20;34.90;81.50
21280;DHT22;11764;43.100;25.716;2022-07-01T13:31:46;35.00;82.90
21280;DHT22;11764;43.100;25.716;2022-07-01T13:34:11;35.00;80.50
21280;DHT22;11764;43.100;25.716;2022-07-01T13:36:37;35.00;80.50
21280;DHT22;11764;43.100;25.716;2022-07-01T13:39:03;34.90;79.80
21280;DHT22;11764;43.100;25.716;2022-07-01T13:41:28;35.00;79.60
21280;DHT22;11764;43.100;25.716;2022-07-01T13:43:54;35.10;80.70
21280;DHT22;11764;43.100;25.716;2022-07-01T13:46:19;35.10;78.90
21280;DHT22;11764;43.100;25.716;2022-07-01T13:48:45;35.00;79.90
21280;DHT22;11764;43.100;25.716;2022-07-01T13:51:11;35.10;79.80
21280;DHT22;11764;43.100;25.716;2022-07-01T13:53:37;35.00;80.30
21280;DHT22;11764;43.100;25.716;2022-07-01T13:56:02;34.90;80.40
21280;DHT22;11764;43.100;25.716;2022-07-01T13:58:28;34.60;80.80
21280;DHT22;11764;43.100;25.716;2022-07-01T14:00:54;34.70;82.00
21280;DHT22;11764;43.100;25.716;2022-07-01T14:03:19;34.50;81.10
21280;DHT22;11764;43.100;25.716;2022-07-01T14:05:45;34.40;81.30
21280;DHT22;11764;43.100;25.716;2022-07-01T14:08:10;34.20;82.30
21280;DHT22;11764;43.100;25.716;2022-07-01T14:10:36;34.40;83.00
21280;DHT22;11764;43.100;25.716;2022-07-01T14:13:03;34.90;83.50
21280;DHT22;11764;43.100;25.716;2022-07-01T14:15:29;34.40;91.90
21280;DHT22;11764;43.100;25.716;2022-07-01T14:17:55;33.40;94.80
21280;DHT22;11764;43.100;25.716;2022-07-01T14:20:20;32.60;96.90
21280;DHT22;11764;43.100;25.716;2022-07-01T14:22:46;32.30;97.80
21280;DHT22;11764;43.100;25.716;2022-07-01T14:25:11;32.00;99.40
21280;DHT22;11764;43.100;25.716;2022-07-01T14:27:37;31.40;99.90
21280;DHT22;11764;43.100;25.716;2022-07-01T14:30:03;30.70;99.90
21280;DHT22;11764;43.100;25.716;2022-07-01T14:32:30;30.60;99.90
21280;DHT22;11764;43.100;25.716;2022-07-01T14:34:56;30.70;99.90
21280;DHT22;11764;43.100;25.716;2022-07-01T14:37:21;31.00;99.90
21280;DHT22;11764;43.100;25.716;2022-07-01T14:39:47;31.20;99.90
21280;DHT22;11764;43.100;25.716;2022-07-01T14:42:21;31.50;99.90
21280;DHT22;11764;43.100;25.716;2022-07-01T14:44:47;31.80;99.90
21280;DHT22;11764;43.100;25.716;2022-07-01T14:47:14;32.10;99.90
21280;DHT22;11764;43.100;25.716;2022-07-01T14:49:39;32.60;99.90
21280;DHT22;11764;43.100;25.716;2022-07-01T14:52:05;33.10;99.90
21280;DHT22;11764;43.100;25.716;2022-07-01T14:54:31;33.80;99.90
21280;DHT22;11764;43.100;25.716;2022-07-01T14:56:57;34.00;99.90
21280;DHT22;11764;43.100;25.716;2022-07-01T14:59:22;33.30;99.90
21280;DHT22;11764;43.100;25.716;2022-07-01T15:01:48;33.60;99.90
21280;DHT22;11764;43.100;25.716;2022-07-01T15:04:13;34.20;99.90
21280;DHT22;11764;43.100;25.716;2022-07-01T15:06:39;34.90;99.90
21280;DHT22;11764;43.100;25.716;2022-07-01T15:09:04;35.60;99.90
21280;DHT22;11764;43.100;25.716;2022-07-01T15:11:30;35.70;99.90
21280;DHT22;11764;43.100;25.716;2022-07-01T15:13:55;35.30;99.50
21280;DHT22;11764;43.100;25.716;2022-07-01T15:16:21;34.40;99.90
21280;DHT22;11764;43.100;25.716;2022-07-01T15:18:48;33.20;99.90
21280;DHT22;11764;43.100;25.716;2022-07-01T15:21:13;33.20;99.90
21280;DHT22;11764;43.100;25.716;2022-07-01T15:23:39;33.30;99.90
21280;DHT22;11764;43.100;25.716;2022-07-01T15:26:04;33.60;99.90
21280;DHT22;11764;43.100;25.716;2022-07-01T15:28:30;33.60;99.90
21280;DHT22;11764;43.100;25.716;2022-07-01T15:30:56;34.00;99.90
21280;DHT22;11764;43.100;25.716;2022-07-01T15:33:21;34.60;99.70
21280;DHT22;11764;43.100;25.716;2022-07-01T15:35:47;35.00;98.50
21280;DHT22;11764;43.100;25.716;2022-07-01T15:38:12;35.70;98.00
21280;DHT22;11764;43.100;25.716;2022-07-01T15:40:38;36.50;97.00
21280;DHT22;11764;43.100;25.716;2022-07-01T15:43:03;37.20;95.20